createdAt,value
2018-08-13T00:00:24.124Z,16.52
2018-08-13T00:02:53.609Z,16.50
2018-08-13T00:05:23.138Z,16.50
2018-08-13T00:07:53.349Z,16.48
2018-08-13T00:10:22.774Z,16.45
2018-08-13T00:12:52.167Z,16.41
2018-08-13T00:15:21.692Z,16.41
2018-08-13T00:17:51.056Z,16.39
2018-08-13T00:20:21.804Z,16.33
2018-08-13T00:22:52.242Z,16.34
2018-08-13T00:25:21.761Z,16.29
2018-08-13T00:27:52.342Z,16.17
2018-08-13T00:30:21.909Z,16.10
2018-08-13T00:32:51.464Z,16.07
2018-08-13T00:35:20.925Z,16.11
2018-08-13T00:37:50.415Z,16.10
2018-08-13T00:40:19.820Z,16.07
2018-08-13T00:42:49.272Z,16.05
2018-08-13T00:45:18.775Z,16.08
2018-08-13T00:47:48.210Z,16.05
2018-08-13T00:50:17.648Z,16.06
2018-08-13T00:52:47.051Z,16.05
2018-08-13T00:55:16.578Z,15.97
2018-08-13T00:57:46.023Z,15.91
2018-08-13T01:00:20.079Z,15.91
2018-08-13T01:02:50.030Z,15.89
2018-08-13T01:05:20.650Z,15.85
2018-08-13T01:07:50.164Z,15.80
2018-08-13T01:10:22.049Z,15.82
2018-08-13T01:12:52.766Z,15.84
2018-08-13T01:15:22.212Z,15.82
2018-08-13T01:17:51.844Z,15.77
2018-08-13T01:20:22.641Z,15.78
2018-08-13T01:22:52.040Z,15.82
2018-08-13T01:25:21.706Z,15.86
2018-08-13T01:27:51.186Z,15.84
2018-08-13T01:30:21.193Z,15.80
2018-08-13T01:32:50.657Z,15.67
2018-08-13T01:35:20.056Z,15.67
2018-08-13T01:37:49.486Z,15.57
2018-08-13T01:40:18.868Z,15.47
2018-08-13T01:42:48.314Z,15.41
2018-08-13T01:45:17.723Z,15.34
2018-08-13T01:47:47.205Z,15.33
2018-08-13T01:50:16.618Z,15.36
2018-08-13T01:52:46.054Z,15.39
2018-08-13T01:55:15.550Z,15.40
2018-08-13T01:57:45.013Z,15.40
2018-08-13T02:00:16.747Z,15.39
2018-08-13T02:02:46.181Z,15.38
2018-08-13T02:05:15.633Z,15.40
2018-08-13T02:07:45.136Z,15.32
2018-08-13T02:10:14.794Z,15.38
2018-08-13T02:12:44.234Z,15.34
2018-08-13T02:15:13.651Z,15.30
2018-08-13T02:17:43.068Z,15.24
2018-08-13T02:20:12.504Z,15.32
2018-08-13T02:22:42.017Z,15.32
2018-08-13T02:25:11.499Z,15.21
2018-08-13T02:27:40.990Z,15.22
2018-08-13T02:30:11.850Z,15.20
2018-08-13T02:32:41.397Z,15.20
2018-08-13T02:35:10.836Z,15.15
2018-08-13T02:37:40.552Z,15.14
2018-08-13T02:40:10.739Z,15.18
2018-08-13T02:42:40.206Z,15.28
2018-08-13T02:45:10.914Z,15.27
2018-08-13T02:47:40.404Z,15.25
2018-08-13T02:50:12.750Z,15.21
2018-08-13T02:52:42.292Z,15.22
2018-08-13T02:55:12.448Z,15.27
2018-08-13T02:57:41.916Z,15.34
2018-08-13T03:00:12.495Z,15.39
2018-08-13T03:02:41.957Z,15.41
2018-08-13T03:05:12.945Z,15.45
2018-08-13T03:07:42.748Z,15.43
2018-08-13T03:10:13.328Z,15.46
2018-08-13T03:12:43.150Z,15.49
2018-08-13T03:15:14.819Z,15.54
2018-08-13T03:17:44.865Z,15.55
2018-08-13T03:20:14.337Z,15.56
2018-08-13T03:22:43.771Z,15.54
2018-08-13T03:25:13.132Z,15.59
2018-08-13T03:27:42.598Z,15.60
2018-08-13T03:30:14.194Z,15.59
2018-08-13T03:32:44.116Z,15.55
2018-08-13T03:35:13.579Z,15.57
2018-08-13T03:37:43.929Z,15.60
2018-08-13T03:40:14.105Z,15.56
2018-08-13T03:42:43.538Z,15.55
2018-08-13T03:45:13.193Z,15.59
2018-08-13T03:47:42.679Z,15.56
2018-08-13T03:50:12.883Z,15.56
2018-08-13T03:52:43.709Z,15.55
2018-08-13T03:55:13.158Z,15.52
2018-08-13T03:57:43.084Z,15.46
2018-08-13T04:00:15.358Z,15.45
2018-08-13T04:02:44.876Z,15.40
2018-08-13T04:05:15.944Z,15.35
2018-08-13T04:07:45.454Z,15.31
2018-08-13T04:10:14.950Z,15.32
2018-08-13T04:12:44.875Z,15.26
2018-08-13T04:15:15.326Z,15.30
2018-08-13T04:17:45.520Z,15.29
2018-08-13T04:20:15.705Z,15.28
2018-08-13T04:22:45.428Z,15.34
2018-08-13T04:25:14.902Z,15.30
2018-08-13T04:27:44.478Z,15.30
2018-08-13T04:30:16.110Z,15.31
2018-08-13T04:32:46.510Z,15.32
2018-08-13T04:35:15.993Z,15.37
2018-08-13T04:37:46.438Z,15.38
2018-08-13T04:40:17.103Z,15.32
2018-08-13T04:42:47.475Z,15.37
2018-08-13T04:45:16.931Z,15.32
2018-08-13T04:47:53.925Z,15.33
2018-08-13T04:50:23.506Z,15.29
2018-08-13T04:52:53.089Z,15.22
2018-08-13T04:55:22.578Z,15.22
2018-08-13T04:57:52.148Z,15.24
2018-08-13T05:00:22.454Z,15.22
2018-08-13T05:02:51.913Z,15.26
2018-08-13T05:05:21.341Z,15.26
2018-08-13T05:07:50.785Z,15.28
2018-08-13T05:10:20.304Z,15.21
2018-08-13T05:12:49.763Z,15.24
2018-08-13T05:15:19.190Z,15.28
2018-08-13T05:17:48.650Z,15.32
2018-08-13T05:20:18.138Z,15.31
2018-08-13T05:22:47.573Z,15.37
2018-08-13T05:25:17.070Z,15.39
2018-08-13T05:27:46.469Z,15.43
2018-08-13T05:30:15.940Z,15.40
2018-08-13T05:32:45.483Z,15.37
2018-08-13T05:35:15.044Z,15.40
2018-08-13T05:37:44.536Z,15.45
2018-08-13T05:40:14.470Z,15.41
2018-08-13T05:42:43.955Z,15.36
2018-08-13T05:45:13.446Z,15.39
2018-08-13T05:47:42.895Z,15.42
2018-08-13T05:50:12.472Z,15.49
2018-08-13T05:52:41.982Z,15.53
2018-08-13T05:55:11.406Z,15.50
2018-08-13T05:57:40.811Z,15.48
2018-08-13T06:00:14.026Z,15.53
2018-08-13T06:02:43.932Z,15.51
2018-08-13T06:05:14.072Z,15.52
2018-08-13T06:07:43.660Z,15.53
2018-08-13T06:10:13.711Z,15.51
2018-08-13T06:12:43.737Z,15.49
2018-08-13T06:15:14.063Z,15.47
2018-08-13T06:17:43.504Z,15.50
2018-08-13T06:20:13.648Z,15.52
2018-08-13T06:22:44.071Z,15.52
2018-08-13T06:25:14.633Z,15.53
2018-08-13T06:27:44.124Z,15.54
2018-08-13T06:30:15.769Z,15.54
2018-08-13T06:32:45.384Z,15.61
2018-08-13T06:35:15.195Z,15.69
2018-08-13T06:37:45.009Z,15.75
2018-08-13T06:40:14.801Z,15.78
2018-08-13T06:42:44.594Z,15.82
2018-08-13T06:45:14.103Z,15.82
2018-08-13T06:47:43.527Z,15.82
2018-08-13T06:50:13.947Z,15.84
2018-08-13T06:52:43.675Z,15.87
2018-08-13T06:55:13.133Z,15.87
2018-08-13T06:57:42.638Z,15.90
2018-08-13T07:00:14.294Z,15.93
2018-08-13T07:02:43.739Z,15.96
2018-08-13T07:05:13.199Z,15.99
2018-08-13T07:07:42.758Z,16.06
2018-08-13T07:10:13.510Z,16.13
2018-08-13T07:12:44.358Z,16.18
2018-08-13T07:15:15.281Z,16.20
2018-08-13T07:17:46.421Z,16.21
2018-08-13T07:20:17.899Z,16.24
2018-08-13T07:22:47.319Z,16.26
2018-08-13T07:25:17.438Z,16.24
2018-08-13T07:27:47.560Z,16.25
2018-08-13T07:30:17.502Z,16.30
2018-08-13T07:32:47.045Z,16.36
2018-08-13T07:35:16.505Z,16.42
2018-08-13T07:37:46.128Z,16.48
2018-08-13T07:40:17.062Z,16.54
2018-08-13T07:42:47.280Z,16.58
2018-08-13T07:45:16.747Z,16.63
2018-08-13T07:47:46.216Z,16.69
2018-08-13T07:50:16.485Z,16.73
2018-08-13T07:52:45.929Z,16.78
2018-08-13T07:55:15.453Z,16.81
2018-08-13T07:57:44.925Z,16.84
2018-08-13T08:00:18.213Z,16.85
2018-08-13T08:02:48.209Z,16.89
2018-08-13T08:05:18.187Z,16.92
2018-08-13T08:07:47.722Z,16.94
2018-08-13T08:10:17.995Z,17.03
2018-08-13T08:12:47.520Z,17.09
2018-08-13T08:15:19.527Z,17.14
2018-08-13T08:17:49.056Z,17.16
2018-08-13T08:20:18.540Z,17.23
2018-08-13T08:22:48.708Z,17.28
2018-08-13T08:25:21.189Z,17.33
2018-08-13T08:27:50.624Z,17.38
2018-08-13T08:30:21.102Z,17.42
2018-08-13T08:32:50.601Z,17.44
2018-08-13T08:35:20.141Z,17.49
2018-08-13T08:37:49.585Z,17.58
2018-08-13T08:40:20.907Z,17.65
2018-08-13T08:42:51.073Z,17.75
2018-08-13T08:45:24.125Z,17.84
2018-08-13T08:47:54.489Z,17.92
2018-08-13T08:50:23.960Z,18.02
2018-08-13T08:52:53.399Z,18.09
2018-08-13T08:55:22.903Z,18.14
2018-08-13T08:57:52.412Z,18.18
2018-08-13T09:00:24.774Z,18.24
2018-08-13T09:02:54.329Z,18.27
2018-08-13T09:05:24.412Z,18.28
2018-08-13T09:07:54.022Z,18.36
2018-08-13T09:10:23.493Z,18.41
2018-08-13T09:12:52.980Z,18.46
2018-08-13T09:15:23.160Z,18.51
2018-08-13T09:18:09.424Z,18.55
2018-08-13T09:20:55.732Z,18.61
2018-08-13T09:23:42.437Z,18.68
2018-08-13T09:26:28.617Z,18.73
2018-08-13T09:29:14.735Z,18.73
2018-08-13T09:32:32.004Z,18.75
2018-08-13T09:35:20.872Z,18.75
2018-08-13T09:37:50.349Z,18.72
2018-08-13T09:40:19.923Z,18.75
2018-08-13T09:42:49.458Z,18.77
2018-08-13T09:45:18.977Z,18.76
2018-08-13T09:47:48.470Z,18.72
2018-08-13T09:50:18.813Z,18.73
2018-08-13T09:52:48.931Z,18.73
2018-08-13T09:55:18.838Z,18.69
2018-08-13T09:57:49.109Z,18.71
2018-08-13T10:00:25.648Z,18.72
2018-08-13T10:02:55.127Z,18.72
2018-08-13T10:05:24.616Z,18.72
2018-08-13T10:07:54.057Z,18.77
2018-08-13T10:10:23.502Z,18.78
2018-08-13T10:12:52.956Z,18.78
2018-08-13T10:15:22.438Z,18.81
2018-08-13T10:17:51.969Z,18.86
2018-08-13T10:20:22.015Z,18.90
2018-08-13T10:22:51.449Z,19.02
2018-08-13T10:25:30.032Z,19.12
2018-08-13T10:28:00.290Z,19.19
2018-08-13T10:30:29.772Z,19.30
2018-08-13T10:32:59.232Z,19.36
2018-08-13T10:35:28.723Z,19.46
2018-08-13T10:37:58.851Z,19.53
2018-08-13T10:40:28.336Z,19.62
2018-08-13T10:42:57.777Z,19.70
2018-08-13T10:45:27.347Z,19.74
2018-08-13T10:47:56.811Z,19.82
2018-08-13T10:50:26.308Z,19.87
2018-08-13T10:52:55.787Z,19.95
2018-08-13T10:55:25.971Z,19.92
2018-08-13T10:57:55.477Z,20.04
2018-08-13T11:00:24.943Z,20.08
2018-08-13T11:02:54.585Z,20.12
2018-08-13T11:05:24.035Z,20.19
2018-08-13T11:07:53.770Z,20.25
2018-08-13T11:10:23.271Z,20.29
2018-08-13T11:12:52.741Z,20.32
2018-08-13T11:15:24.731Z,20.35
2018-08-13T11:17:54.225Z,20.32
2018-08-13T11:20:23.685Z,20.32
2018-08-13T11:22:53.124Z,20.30
2018-08-13T11:25:22.685Z,20.35
2018-08-13T11:27:52.217Z,20.40
2018-08-13T11:30:21.789Z,20.43
2018-08-13T11:32:51.243Z,20.47
2018-08-13T11:35:20.744Z,20.55
2018-08-13T11:37:50.465Z,20.57
2018-08-13T11:40:20.064Z,20.57
2018-08-13T11:42:50.005Z,20.61
2018-08-13T11:45:19.479Z,20.70
2018-08-13T11:47:48.902Z,20.70
2018-08-13T11:50:19.636Z,20.71
2018-08-13T11:52:50.540Z,20.78
2018-08-13T11:55:20.469Z,20.82
2018-08-13T11:57:50.670Z,20.88
2018-08-13T12:00:20.724Z,20.90
2018-08-13T12:02:50.099Z,20.93
2018-08-13T12:05:19.601Z,20.85
2018-08-13T12:07:49.109Z,20.93
2018-08-13T12:10:18.560Z,20.94
2018-08-13T12:12:48.016Z,21.06
2018-08-13T12:15:17.523Z,21.09
2018-08-13T12:17:47.074Z,21.21
2018-08-13T12:20:19.118Z,21.20
2018-08-13T12:22:48.863Z,21.11
2018-08-13T12:25:27.363Z,21.09
2018-08-13T12:27:58.019Z,21.20
2018-08-13T12:30:27.617Z,21.24
2018-08-13T12:32:57.319Z,21.24
2018-08-13T12:35:27.768Z,21.26
2018-08-13T12:37:57.274Z,21.28
2018-08-13T12:40:26.781Z,21.26
2018-08-13T12:42:56.237Z,21.23
2018-08-13T12:45:25.896Z,21.21
2018-08-13T12:47:55.535Z,21.20
2018-08-13T12:50:24.953Z,21.23
2018-08-13T12:52:54.483Z,21.27
2018-08-13T12:55:24.043Z,21.34
2018-08-13T12:57:54.174Z,21.52
2018-08-13T13:00:24.372Z,21.66
2018-08-13T13:02:53.824Z,21.74
2018-08-13T13:05:23.286Z,21.79
2018-08-13T13:07:52.682Z,21.88
2018-08-13T13:10:22.183Z,21.90
2018-08-13T13:12:51.603Z,21.88
2018-08-13T13:15:21.515Z,21.87
2018-08-13T13:17:51.228Z,21.88
2018-08-13T13:20:23.274Z,21.92
2018-08-13T13:22:52.962Z,21.93
2018-08-13T13:25:22.468Z,21.93
2018-08-13T13:27:51.878Z,21.99
2018-08-13T13:30:21.285Z,22.02
2018-08-13T13:32:50.788Z,22.03
2018-08-13T13:35:20.187Z,22.08
2018-08-13T13:37:49.629Z,22.07
2018-08-13T13:40:19.228Z,22.05
2018-08-13T13:42:48.649Z,22.16
2018-08-13T13:45:18.664Z,22.30
2018-08-13T13:47:48.274Z,22.37
2018-08-13T13:50:19.061Z,22.46
2018-08-13T13:52:48.577Z,22.54
2018-08-13T13:55:18.187Z,22.69
2018-08-13T13:57:47.659Z,22.75
2018-08-13T14:00:19.657Z,22.78
2018-08-13T14:02:50.980Z,22.78
2018-08-13T14:05:21.072Z,22.84
2018-08-13T14:07:50.513Z,22.90
2018-08-13T14:10:21.973Z,22.92
2018-08-13T14:12:51.458Z,23.03
2018-08-13T14:15:22.540Z,23.00
2018-08-13T14:17:52.397Z,23.06
2018-08-13T14:20:22.149Z,23.22
2018-08-13T14:22:51.591Z,23.35
2018-08-13T14:25:21.133Z,23.46
2018-08-13T14:27:50.597Z,23.57
2018-08-13T14:30:23.656Z,23.71
2018-08-13T14:32:53.295Z,23.70
2018-08-13T14:35:23.984Z,23.80
2018-08-13T14:37:53.547Z,23.90
2018-08-13T14:40:23.028Z,23.96
2018-08-13T14:42:52.519Z,24.02
2018-08-13T14:45:22.135Z,24.17
2018-08-13T14:47:52.447Z,24.28
2018-08-13T14:50:22.036Z,24.33
2018-08-13T14:52:51.494Z,24.49
2018-08-13T14:55:22.705Z,24.43
2018-08-13T14:57:52.146Z,24.43
2018-08-13T15:00:30.609Z,24.43
2018-08-13T15:03:00.020Z,24.43
2018-08-13T15:05:29.535Z,24.39
2018-08-13T15:07:59.050Z,24.38
2018-08-13T15:10:28.630Z,24.34
2018-08-13T15:12:58.290Z,24.33
2018-08-13T15:15:27.631Z,24.41
2018-08-13T15:17:57.079Z,24.54
2018-08-13T15:20:29.383Z,24.66
2018-08-13T15:22:58.923Z,24.73
2018-08-13T15:25:29.211Z,24.68
2018-08-13T15:27:59.623Z,24.64
2018-08-13T15:30:29.056Z,24.61
2018-08-13T15:32:58.593Z,24.49
2018-08-13T15:35:28.040Z,24.52
2018-08-13T15:37:57.463Z,24.52
2018-08-13T15:40:26.956Z,24.50
2018-08-13T15:42:56.474Z,24.37
2018-08-13T15:45:25.975Z,24.35
2018-08-13T15:47:55.528Z,24.31
2018-08-13T15:50:25.085Z,24.27
2018-08-13T15:52:54.567Z,24.21
2018-08-13T15:55:23.945Z,24.22
2018-08-13T15:57:54.403Z,24.23
2018-08-13T16:00:25.614Z,24.25
2018-08-13T16:02:55.274Z,24.27
2018-08-13T16:05:24.771Z,24.22
2018-08-13T16:07:54.484Z,24.18
2018-08-13T16:10:24.003Z,24.00
2018-08-13T16:12:55.235Z,23.97
2018-08-13T16:15:25.479Z,24.04
2018-08-13T16:17:54.895Z,24.05
2018-08-13T16:20:24.307Z,24.07
2018-08-13T16:22:53.788Z,24.06
2018-08-13T16:25:23.262Z,24.12
2018-08-13T16:27:52.827Z,24.08
2018-08-13T16:30:27.117Z,24.04
2018-08-13T16:32:56.589Z,23.99
2018-08-13T16:35:26.358Z,24.02
2018-08-13T16:37:56.118Z,23.91
2018-08-13T16:40:25.620Z,23.83
2018-08-13T16:42:55.081Z,23.71
2018-08-13T16:45:24.838Z,23.67
2018-08-13T16:47:54.317Z,23.58
2018-08-13T16:50:32.516Z,23.57
2018-08-13T16:53:02.571Z,23.51
2018-08-13T16:55:32.953Z,23.43
2018-08-13T16:58:03.123Z,23.36
2018-08-13T17:00:34.111Z,23.32
2018-08-13T17:03:03.584Z,23.25
2018-08-13T17:05:34.691Z,23.23
2018-08-13T17:08:04.508Z,23.08
2018-08-13T17:10:33.920Z,22.80
2018-08-13T17:13:03.489Z,22.63
2018-08-13T17:15:33.565Z,22.52
2018-08-13T17:18:04.969Z,22.44
2018-08-13T17:20:38.260Z,22.43
2018-08-13T17:23:07.902Z,22.37
2018-08-13T17:25:37.456Z,22.18
2018-08-13T17:28:07.283Z,22.03
2018-08-13T17:30:36.743Z,21.92
2018-08-13T17:33:07.329Z,21.85
2018-08-13T17:35:37.107Z,21.70
2018-08-13T17:38:09.656Z,21.60
2018-08-13T17:40:39.230Z,21.54
2018-08-13T17:43:10.521Z,21.47
2018-08-13T17:45:39.869Z,21.17
2018-08-13T17:48:10.563Z,21.17
2018-08-13T17:50:41.224Z,21.06
2018-08-13T17:53:11.502Z,21.02
2018-08-13T17:55:41.040Z,21.01
2018-08-13T17:58:10.579Z,20.98
2018-08-13T18:00:40.052Z,20.92
2018-08-13T18:03:09.539Z,20.86
2018-08-13T18:05:39.067Z,20.83
2018-08-13T18:08:08.783Z,20.84
2018-08-13T18:10:38.820Z,20.85
2018-08-13T18:13:09.418Z,20.88
2018-08-13T18:15:38.956Z,20.85
2018-08-13T18:18:08.489Z,20.78
2018-08-13T18:20:37.965Z,20.70
2018-08-13T18:23:09.199Z,20.65
2018-08-13T18:25:38.754Z,20.65
2018-08-13T18:28:08.319Z,20.64
2018-08-13T18:30:38.363Z,20.54
2018-08-13T18:33:08.319Z,20.47
2018-08-13T18:35:37.789Z,20.42
2018-08-13T18:38:07.332Z,20.39
2018-08-13T18:40:36.865Z,20.38
2018-08-13T18:43:06.288Z,20.41
2018-08-13T18:45:35.781Z,20.35
2018-08-13T18:48:05.270Z,20.32
2018-08-13T18:50:34.848Z,20.21
2018-08-13T18:53:04.407Z,20.16
2018-08-13T18:55:33.891Z,20.09
2018-08-13T18:58:03.440Z,20.05
2018-08-13T19:00:33.904Z,19.95
2018-08-13T19:03:03.682Z,19.90
2018-08-13T19:05:34.943Z,19.81
2018-08-13T19:08:04.503Z,19.77
2018-08-13T19:10:34.056Z,19.74
2018-08-13T19:13:03.541Z,19.72
2018-08-13T19:15:33.080Z,19.60
2018-08-13T19:18:02.552Z,19.49
2018-08-13T19:20:32.111Z,19.39
2018-08-13T19:23:01.519Z,19.32
2018-08-13T19:25:31.065Z,19.33
2018-08-13T19:28:00.550Z,19.23
2018-08-13T19:30:30.005Z,19.15
2018-08-13T19:32:59.522Z,19.06
2018-08-13T19:35:29.032Z,18.99
2018-08-13T19:37:58.530Z,18.89
2018-08-13T19:40:28.085Z,18.80
2018-08-13T19:42:57.569Z,18.83
2018-08-13T19:45:27.099Z,18.77
2018-08-13T19:47:56.631Z,18.71
2018-08-13T19:50:26.232Z,18.70
2018-08-13T19:52:55.694Z,18.66
2018-08-13T19:55:25.130Z,18.63
2018-08-13T19:57:54.652Z,18.60
2018-08-13T20:00:27.255Z,18.69
2018-08-13T20:02:56.839Z,18.63
2018-08-13T20:05:27.420Z,18.54
2018-08-13T20:07:57.118Z,18.53
2018-08-13T20:10:26.595Z,18.50
2018-08-13T20:12:56.120Z,18.43
2018-08-13T20:15:25.602Z,18.37
2018-08-13T20:17:55.156Z,18.34
2018-08-13T20:20:24.643Z,18.32
2018-08-13T20:22:54.156Z,18.36
2018-08-13T20:25:27.229Z,18.37
2018-08-13T20:27:56.763Z,18.30
2018-08-13T20:30:26.235Z,18.25
2018-08-13T20:32:55.739Z,18.16
2018-08-13T20:35:25.328Z,18.15
2018-08-13T20:37:54.785Z,18.12
2018-08-13T20:40:24.248Z,18.04
2018-08-13T20:42:53.689Z,18.04
2018-08-13T20:45:23.851Z,18.02
2018-08-13T20:47:53.367Z,17.91
2018-08-13T20:50:24.718Z,17.93
2018-08-13T20:52:55.557Z,17.80
2018-08-13T20:55:29.782Z,17.77
2018-08-13T20:57:59.274Z,17.71
2018-08-13T21:00:30.337Z,17.69
2018-08-13T21:03:01.148Z,17.70
2018-08-13T21:05:30.615Z,17.62
2018-08-13T21:08:00.923Z,17.55
2018-08-13T21:10:30.390Z,17.57
2018-08-13T21:12:59.913Z,17.56
2018-08-13T21:15:29.447Z,17.54
2018-08-13T21:17:58.854Z,17.52
2018-08-13T21:20:29.772Z,17.50
2018-08-13T21:22:59.260Z,17.53
2018-08-13T21:25:29.431Z,17.51
2018-08-13T21:27:58.776Z,17.44
2018-08-13T21:30:28.243Z,17.40
2018-08-13T21:32:58.465Z,17.33
2018-08-13T21:35:28.936Z,17.34
2018-08-13T21:37:58.437Z,17.25
2018-08-13T21:40:27.899Z,17.20
2018-08-13T21:42:57.447Z,17.10
2018-08-13T21:45:26.823Z,17.06
2018-08-13T21:47:56.336Z,17.07
2018-08-13T21:50:25.845Z,17.04
2018-08-13T21:52:55.223Z,17.03
2018-08-13T21:55:24.713Z,17.00
2018-08-13T21:57:54.273Z,16.91
2018-08-13T22:00:30.279Z,16.91
2018-08-13T22:03:01.891Z,16.90
2018-08-13T22:05:32.437Z,16.90
2018-08-13T22:08:01.900Z,16.97
2018-08-13T22:10:31.327Z,16.97
2018-08-13T22:13:00.783Z,17.03
2018-08-13T22:15:31.214Z,17.07
2018-08-13T22:18:05.034Z,17.07
2018-08-13T22:20:36.092Z,17.05
2018-08-13T22:23:07.124Z,17.00
2018-08-13T22:25:40.357Z,16.94
2018-08-13T22:28:11.263Z,16.94
2018-08-13T22:30:40.810Z,16.87
2018-08-13T22:33:11.250Z,16.87
2018-08-13T22:35:41.359Z,16.86
2018-08-13T22:38:11.927Z,16.83
2018-08-13T22:40:41.903Z,16.81
2018-08-13T22:43:11.438Z,16.80
2018-08-13T22:45:41.143Z,16.82
2018-08-13T22:48:10.574Z,16.79
2018-08-13T22:50:40.046Z,16.77
2018-08-13T22:53:09.543Z,16.66
2018-08-13T22:55:39.085Z,16.63
2018-08-13T22:58:08.656Z,16.67
2018-08-13T23:00:38.162Z,16.67
2018-08-13T23:03:08.089Z,16.67
2018-08-13T23:05:37.600Z,16.64
2018-08-13T23:08:07.512Z,16.62
2018-08-13T23:10:36.995Z,16.59
2018-08-13T23:13:15.513Z,16.56
2018-08-13T23:15:45.003Z,16.51
2018-08-13T23:18:14.550Z,16.52
2018-08-13T23:20:43.998Z,16.56
2018-08-13T23:23:13.454Z,16.55
2018-08-13T23:25:42.897Z,16.58
2018-08-13T23:28:12.719Z,16.53
2018-08-13T23:30:42.192Z,16.52
2018-08-13T23:33:11.609Z,16.48
2018-08-13T23:35:41.075Z,16.49
2018-08-13T23:38:10.528Z,16.47
2018-08-13T23:40:39.966Z,16.46
2018-08-13T23:43:09.446Z,16.44
2018-08-13T23:45:38.858Z,16.44
2018-08-13T23:48:08.364Z,16.44
2018-08-13T23:50:37.809Z,16.46
2018-08-13T23:53:07.254Z,16.50
2018-08-13T23:55:38.432Z,16.50
2018-08-13T23:58:12.636Z,16.51
